createdAt,value
2022-10-25T00:01:29.404Z,99425.88
2022-10-25T00:03:56.467Z,99430.22
2022-10-25T00:06:23.777Z,99431.84
2022-10-25T00:08:50.481Z,99425.59
2022-10-25T00:11:26.175Z,99435.66
2022-10-25T00:13:54.999Z,99423.56
2022-10-25T00:16:24.336Z,99418.50
2022-10-25T00:18:51.641Z,99428.13
2022-10-25T00:21:18.868Z,99424.19
2022-10-25T00:23:45.847Z,99421.97
2022-10-25T00:26:12.792Z,99424.97
2022-10-25T00:28:39.841Z,99426.91
2022-10-25T00:31:09.492Z,99418.94
2022-10-25T00:33:37.988Z,99417.03
2022-10-25T00:36:08.339Z,99415.13
2022-10-25T00:38:35.360Z,99421.84
2022-10-25T00:41:02.631Z,99418.63
2022-10-25T00:43:42.070Z,99420.25
2022-10-25T00:46:23.715Z,99418.84
2022-10-25T00:48:59.014Z,99418.03
2022-10-25T00:51:42.066Z,99419.00
2022-10-25T00:54:11.971Z,99418.06
2022-10-25T00:56:42.095Z,99426.09
2022-10-25T00:59:13.949Z,99431.69
2022-10-25T01:01:41.798Z,99431.56
2022-10-25T01:04:11.753Z,99432.53
2022-10-25T01:06:40.863Z,99437.84
2022-10-25T01:09:10.619Z,99438.34
2022-10-25T01:11:37.995Z,99442.38
2022-10-25T01:14:07.596Z,99435.34
2022-10-25T01:16:36.890Z,99442.38
2022-10-25T01:19:31.073Z,99449.09
2022-10-25T01:22:22.187Z,99450.38
2022-10-25T01:25:10.006Z,99451.66
2022-10-25T01:28:15.675Z,99449.75
2022-10-25T01:31:00.641Z,99440.66
2022-10-25T01:34:11.631Z,99440.66
2022-10-25T01:36:44.879Z,99444.50
2022-10-25T01:39:33.333Z,99449.25
2022-10-25T01:42:14.382Z,99443.34
2022-10-25T01:44:54.239Z,99449.09
2022-10-25T01:47:26.300Z,99442.56
2022-10-25T01:49:57.591Z,99432.91
2022-10-25T01:52:24.788Z,99441.44
2022-10-25T01:54:52.334Z,99439.50
2022-10-25T01:57:49.534Z,99436.31
2022-10-25T02:00:18.579Z,99443.03
2022-10-25T02:02:48.316Z,99431.84
2022-10-25T02:05:26.186Z,99421.09
2022-10-25T02:07:55.686Z,99431.94
2022-10-25T02:10:42.678Z,99425.41
2022-10-25T02:13:24.794Z,99422.06
2022-10-25T02:16:14.255Z,99417.75
2022-10-25T02:18:47.144Z,99414.25
2022-10-25T02:21:16.478Z,99425.41
2022-10-25T02:23:43.302Z,99420.31
2022-10-25T02:26:11.375Z,99425.50
2022-10-25T02:28:40.273Z,99420.72
2022-10-25T02:31:10.390Z,99422.13
2022-10-25T02:33:37.780Z,99423.56
2022-10-25T02:36:09.618Z,99424.97
2022-10-25T02:38:36.373Z,99419.88
2022-10-25T02:41:04.720Z,99413.75
2022-10-25T02:43:31.667Z,99421.22
2022-10-25T02:45:58.829Z,99416.22
2022-10-25T02:48:25.953Z,99421.28
2022-10-25T02:50:52.638Z,99413.94
2022-10-25T02:53:19.190Z,99414.47
2022-10-25T02:55:45.692Z,99416.84
2022-10-25T02:58:12.276Z,99432.50
2022-10-25T03:00:38.864Z,99420.25
2022-10-25T03:03:05.462Z,99418.03
2022-10-25T03:05:32.020Z,99423.81
2022-10-25T03:07:58.566Z,99420.78
2022-10-25T03:10:25.075Z,99422.06
2022-10-25T03:12:51.496Z,99425.41
2022-10-25T03:15:17.993Z,99430.09
2022-10-25T03:17:44.667Z,99433.78
2022-10-25T03:20:11.461Z,99439.41
2022-10-25T03:22:37.958Z,99435.88
2022-10-25T03:25:05.001Z,99438.59
2022-10-25T03:27:31.578Z,99446.44
2022-10-25T03:29:58.058Z,99445.81
2022-10-25T03:32:24.538Z,99446.50
2022-10-25T03:34:51.198Z,99449.59
2022-10-25T03:37:17.765Z,99446.72
2022-10-25T03:39:44.313Z,99457.94
2022-10-25T03:42:10.814Z,99456.72
2022-10-25T03:44:37.347Z,99460.88
2022-10-25T03:47:03.871Z,99452.59
2022-10-25T03:49:30.413Z,99459.00
2022-10-25T03:51:58.981Z,99463.50
2022-10-25T03:54:29.266Z,99468.28
2022-10-25T03:56:56.110Z,99461.75
2022-10-25T03:59:22.645Z,99464.16
2022-10-25T04:01:49.249Z,99463.53
2022-10-25T04:04:15.929Z,99463.53
2022-10-25T04:06:42.449Z,99467.38
2022-10-25T04:09:09.279Z,99463.69
2022-10-25T04:11:35.819Z,99465.41
2022-10-25T04:14:02.469Z,99468.09
2022-10-25T04:16:29.067Z,99464.59
2022-10-25T04:18:55.677Z,99465.41
2022-10-25T04:21:22.265Z,99460.09
2022-10-25T04:23:49.929Z,99469.84
2022-10-25T04:26:18.675Z,99473.06
2022-10-25T04:28:49.941Z,99471.44
2022-10-25T04:31:16.575Z,99477.84
2022-10-25T04:33:46.520Z,99481.88
2022-10-25T04:36:15.645Z,99478.84
2022-10-25T04:38:42.219Z,99484.16
2022-10-25T04:41:09.774Z,99478.38
2022-10-25T04:43:36.932Z,99476.78
2022-10-25T04:46:04.078Z,99490.06
2022-10-25T04:48:30.859Z,99485.75
2022-10-25T04:51:00.607Z,99489.25
2022-10-25T04:53:27.451Z,99493.97
2022-10-25T04:56:08.591Z,99499.16
2022-10-25T04:58:36.291Z,99494.94
2022-10-25T05:01:12.416Z,99489.47
2022-10-25T05:03:39.689Z,99489.34
2022-10-25T05:06:12.156Z,99486.78
2022-10-25T05:08:40.611Z,99490.00
2022-10-25T05:11:08.625Z,99489.03
2022-10-25T05:13:36.390Z,99483.41
2022-10-25T05:16:03.343Z,99491.72
2022-10-25T05:18:34.445Z,99492.22
2022-10-25T05:21:04.706Z,99493.66
2022-10-25T05:23:33.638Z,99501.63
2022-10-25T05:26:07.497Z,99501.78
2022-10-25T05:28:36.204Z,99498.25
2022-10-25T05:31:07.929Z,99496.75
2022-10-25T05:33:34.706Z,99495.13
2022-10-25T05:36:02.725Z,99503.28
2022-10-25T05:38:32.038Z,99496.63
2022-10-25T05:41:02.120Z,99499.38
2022-10-25T05:43:29.167Z,99500.19
2022-10-25T05:46:16.093Z,99501.81
2022-10-25T05:48:48.382Z,99503.53
2022-10-25T05:51:33.130Z,99499.72
2022-10-25T05:54:02.863Z,99489.75
2022-10-25T05:56:31.219Z,99489.25
2022-10-25T05:58:58.221Z,99495.00
2022-10-25T06:01:27.016Z,99492.41
2022-10-25T06:03:55.284Z,99497.59
2022-10-25T06:06:23.107Z,99500.81
2022-10-25T06:08:49.932Z,99504.19
2022-10-25T06:11:18.727Z,99498.53
2022-10-25T06:13:46.035Z,99504.59
2022-10-25T06:16:15.768Z,99506.78
2022-10-25T06:18:43.156Z,99507.38
2022-10-25T06:21:12.774Z,99503.94
2022-10-25T06:23:40.439Z,99494.91
2022-10-25T06:26:10.040Z,99506.94
2022-10-25T06:28:37.059Z,99509.53
2022-10-25T06:31:05.844Z,99512.53
2022-10-25T06:33:32.546Z,99509.81
2022-10-25T06:36:01.696Z,99512.59
2022-10-25T06:38:29.379Z,99528.00
2022-10-25T06:41:03.515Z,99527.56
2022-10-25T06:43:30.970Z,99534.34
2022-10-25T06:45:57.863Z,99532.97
2022-10-25T06:48:24.691Z,99545.00
2022-10-25T06:51:21.818Z,99540.03
2022-10-25T06:53:54.100Z,99547.56
2022-10-25T06:56:20.759Z,99543.75
2022-10-25T06:58:47.421Z,99557.56
2022-10-25T07:01:16.472Z,99560.63
2022-10-25T07:03:43.610Z,99558.69
2022-10-25T07:06:13.086Z,99559.16
2022-10-25T07:08:41.892Z,99566.69
2022-10-25T07:11:13.561Z,99571.97
2022-10-25T07:13:40.077Z,99575.63
2022-10-25T07:16:09.641Z,99579.66
2022-10-25T07:18:36.934Z,99582.53
2022-10-25T07:21:11.838Z,99579.00
2022-10-25T07:23:42.456Z,99586.38
2022-10-25T07:26:33.640Z,99592.63
2022-10-25T07:29:01.569Z,99595.81
2022-10-25T07:31:34.066Z,99599.22
2022-10-25T07:34:03.198Z,99594.09
2022-10-25T07:36:30.182Z,99601.28
2022-10-25T07:38:57.168Z,99605.59
2022-10-25T07:41:25.200Z,99608.94
2022-10-25T07:43:51.919Z,99606.06
2022-10-25T07:46:18.587Z,99609.28
2022-10-25T07:48:45.236Z,99608.63
2022-10-25T07:51:13.875Z,99617.09
2022-10-25T07:53:41.054Z,99626.69
2022-10-25T07:56:12.119Z,99619.16
2022-10-25T07:58:38.664Z,99620.94
2022-10-25T08:01:07.782Z,99623.78
2022-10-25T08:03:34.681Z,99625.03
2022-10-25T08:06:01.991Z,99618.63
2022-10-25T08:08:29.488Z,99626.00
2022-10-25T08:10:56.848Z,99631.44
2022-10-25T08:13:23.802Z,99625.88
2022-10-25T08:15:55.355Z,99625.38
2022-10-25T08:18:23.491Z,99631.13
2022-10-25T08:21:01.823Z,99633.06
2022-10-25T08:23:31.674Z,99631.63
2022-10-25T08:25:58.637Z,99623.50
2022-10-25T08:28:25.168Z,99625.25
2022-10-25T08:30:54.459Z,99632.19
2022-10-25T08:33:21.157Z,99620.47
2022-10-25T08:35:47.668Z,99623.53
2022-10-25T08:38:14.259Z,99625.44
2022-10-25T08:41:06.812Z,99628.81
2022-10-25T08:43:56.022Z,99626.75
2022-10-25T08:46:28.871Z,99624.22
2022-10-25T08:49:11.664Z,99617.63
2022-10-25T08:51:41.937Z,99622.63
2022-10-25T08:54:25.700Z,99624.84
2022-10-25T08:57:16.248Z,99630.91
2022-10-25T08:59:47.296Z,99628.53
2022-10-25T09:02:32.662Z,99643.41
2022-10-25T09:04:59.757Z,99635.53
2022-10-25T09:07:42.851Z,99625.91
2022-10-25T09:10:41.038Z,99632.28
2022-10-25T09:13:10.890Z,99630.22
2022-10-25T09:15:40.453Z,99632.81
2022-10-25T09:18:16.729Z,99636.66
2022-10-25T09:20:49.700Z,99642.59
2022-10-25T09:23:30.434Z,99645.63
2022-10-25T09:26:10.306Z,99638.22
2022-10-25T09:28:57.816Z,99648.63
2022-10-25T09:31:25.589Z,99651.91
2022-10-25T09:34:03.185Z,99653.50
2022-10-25T09:36:37.237Z,99653.44
2022-10-25T09:39:15.842Z,99654.16
2022-10-25T09:41:48.939Z,99662.53
2022-10-25T09:44:40.445Z,99657.28
2022-10-25T09:47:48.718Z,99645.56
2022-10-25T09:50:27.432Z,99644.94
2022-10-25T09:53:06.309Z,99649.41
2022-10-25T09:55:33.570Z,99646.38
2022-10-25T09:58:01.724Z,99651.34
2022-10-25T10:00:29.077Z,99643.75
2022-10-25T10:02:55.841Z,99649.50
2022-10-25T10:05:22.779Z,99640.16
2022-10-25T10:07:50.777Z,99645.78
2022-10-25T10:10:24.213Z,99641.34
2022-10-25T10:13:08.465Z,99650.00
2022-10-25T10:15:49.894Z,99646.31
2022-10-25T10:18:25.332Z,99653.47
2022-10-25T10:21:10.238Z,99646.72
2022-10-25T10:23:44.473Z,99638.34
2022-10-25T10:26:23.284Z,99646.84
2022-10-25T10:28:55.076Z,99643.44
2022-10-25T10:31:21.992Z,99641.75
2022-10-25T10:33:52.289Z,99645.88
2022-10-25T10:36:36.827Z,99645.44
2022-10-25T10:39:33.123Z,99647.22
2022-10-25T10:42:15.165Z,99647.22
2022-10-25T10:44:41.798Z,99656.44
2022-10-25T10:47:19.992Z,99653.34
2022-10-25T10:49:47.861Z,99647.88
2022-10-25T10:52:31.385Z,99644.56
2022-10-25T10:54:59.074Z,99653.56
2022-10-25T10:57:36.052Z,99651.31
2022-10-25T11:00:04.058Z,99643.44
2022-10-25T11:02:41.776Z,99647.56
2022-10-25T11:05:26.351Z,99642.94
2022-10-25T11:08:17.252Z,99632.69
2022-10-25T11:10:43.906Z,99642.38
2022-10-25T11:13:13.349Z,99637.97
2022-10-25T11:15:42.692Z,99631.38
2022-10-25T11:18:12.719Z,99629.91
2022-10-25T11:20:39.270Z,99621.94
2022-10-25T11:23:19.216Z,99626.59
2022-10-25T11:25:48.693Z,99624.38
2022-10-25T11:28:30.134Z,99630.06
2022-10-25T11:30:56.594Z,99624.38
2022-10-25T11:33:41.200Z,99607.06
2022-10-25T11:36:10.610Z,99615.34
2022-10-25T11:39:10.578Z,99611.78
2022-10-25T11:42:00.631Z,99622.03
2022-10-25T11:44:30.259Z,99614.09
2022-10-25T11:47:09.033Z,99608.41
2022-10-25T11:50:14.640Z,99619.75
2022-10-25T11:53:08.701Z,99614.97
2022-10-25T11:55:42.666Z,99613.63
2022-10-25T11:58:39.630Z,99612.69
2022-10-25T12:01:09.273Z,99618.16
2022-10-25T12:04:10.247Z,99608.59
2022-10-25T12:06:54.648Z,99612.31
2022-10-25T12:09:40.089Z,99612.22
2022-10-25T12:12:11.828Z,99619.75
2022-10-25T12:14:43.482Z,99618.34
2022-10-25T12:17:26.720Z,99603.75
2022-10-25T12:19:56.074Z,99616.50
2022-10-25T12:22:45.819Z,99601.56
2022-10-25T12:25:28.227Z,99601.44
2022-10-25T12:28:27.791Z,99597.56
2022-10-25T12:31:01.925Z,99585.72
2022-10-25T12:33:35.134Z,99590.50
2022-10-25T12:36:12.051Z,99582.22
2022-10-25T12:38:39.977Z,99583.53
2022-10-25T12:41:15.353Z,99576.84
2022-10-25T12:44:07.914Z,99573.88
2022-10-25T12:46:34.397Z,99575.09
2022-10-25T12:49:19.244Z,99576.78
2022-10-25T12:52:10.436Z,99571.06
2022-10-25T12:54:39.845Z,99571.78
2022-10-25T12:57:31.196Z,99565.66
2022-10-25T13:00:22.563Z,99560.59
2022-10-25T13:03:22.912Z,99547.63
2022-10-25T13:05:58.542Z,99558.16
2022-10-25T13:08:26.733Z,99557.91
2022-10-25T13:11:05.495Z,99563.75
2022-10-25T13:13:40.190Z,99548.00
2022-10-25T13:16:10.386Z,99544.47
2022-10-25T13:18:43.672Z,99547.28
2022-10-25T13:21:16.879Z,99549.69
2022-10-25T13:23:43.378Z,99549.75
2022-10-25T13:26:15.117Z,99537.97
2022-10-25T13:28:48.602Z,99535.16
2022-10-25T13:31:33.793Z,99540.59
2022-10-25T13:34:12.648Z,99533.44
2022-10-25T13:36:52.477Z,99533.03
2022-10-25T13:39:44.407Z,99516.41
2022-10-25T13:42:27.821Z,99524.06
2022-10-25T13:44:56.361Z,99507.25
2022-10-25T13:47:37.333Z,99517.84
2022-10-25T13:50:28.117Z,99508.94
2022-10-25T13:53:00.235Z,99510.97
2022-10-25T13:55:34.802Z,99512.47
2022-10-25T13:58:01.695Z,99507.75
2022-10-25T14:00:33.083Z,99504.03
2022-10-25T14:03:08.707Z,99503.91
2022-10-25T14:05:53.710Z,99502.69
2022-10-25T14:08:44.651Z,99496.50
2022-10-25T14:11:23.673Z,99499.97
2022-10-25T14:14:14.115Z,99496.91
2022-10-25T14:16:55.974Z,99488.81
2022-10-25T14:19:31.960Z,99497.63
2022-10-25T14:22:04.816Z,99501.91
2022-10-25T14:24:31.844Z,99493.13
2022-10-25T14:27:01.156Z,99493.06
2022-10-25T14:29:29.631Z,99498.28
2022-10-25T14:31:57.091Z,99492.94
2022-10-25T14:34:27.022Z,99499.47
2022-10-25T14:36:58.468Z,99495.41
2022-10-25T14:39:28.176Z,99497.03
2022-10-25T14:41:57.214Z,99497.44
2022-10-25T14:44:28.835Z,99495.50
2022-10-25T14:46:56.698Z,99502.06
2022-10-25T14:49:24.334Z,99496.22
2022-10-25T14:51:54.584Z,99504.50
2022-10-25T14:54:33.708Z,99501.31
2022-10-25T14:57:04.237Z,99492.81
2022-10-25T14:59:42.737Z,99491.72
2022-10-25T15:02:17.578Z,99492.22
2022-10-25T15:04:48.529Z,99483.34
2022-10-25T15:07:26.948Z,99480.09
2022-10-25T15:09:56.245Z,99481.44
2022-10-25T15:12:25.212Z,99472.91
2022-10-25T15:14:53.523Z,99473.69
2022-10-25T15:17:22.837Z,99478.25
2022-10-25T15:19:59.603Z,99474.94
2022-10-25T15:22:32.623Z,99459.13
2022-10-25T15:24:59.598Z,99459.72
2022-10-25T15:27:32.003Z,99455.53
2022-10-25T15:29:58.640Z,99460.69
2022-10-25T15:32:27.631Z,99446.94
2022-10-25T15:34:57.875Z,99451.88
2022-10-25T15:37:26.222Z,99448.19
2022-10-25T15:39:54.394Z,99441.94
2022-10-25T15:42:23.905Z,99439.56
2022-10-25T15:44:50.614Z,99446.16
2022-10-25T15:47:31.236Z,99438.59
2022-10-25T15:49:58.919Z,99442.56
2022-10-25T15:52:26.090Z,99438.56
2022-10-25T15:54:52.784Z,99446.72
2022-10-25T15:57:19.404Z,99447.72
2022-10-25T15:59:45.991Z,99433.19
2022-10-25T16:02:23.448Z,99438.16
2022-10-25T16:04:50.066Z,99432.16
2022-10-25T16:07:16.656Z,99426.97
2022-10-25T16:09:43.565Z,99425.81
2022-10-25T16:12:19.747Z,99423.78
2022-10-25T16:14:46.612Z,99421.09
2022-10-25T16:17:13.977Z,99420.03
2022-10-25T16:19:40.913Z,99412.69
2022-10-25T16:22:07.562Z,99413.06
2022-10-25T16:24:34.115Z,99419.38
2022-10-25T16:27:01.243Z,99414.28
2022-10-25T16:29:27.905Z,99415.16
2022-10-25T16:31:54.683Z,99405.09
2022-10-25T16:34:21.514Z,99420.00
2022-10-25T16:36:50.497Z,99418.91
2022-10-25T16:39:17.077Z,99417.50
2022-10-25T16:41:45.612Z,99413.69
2022-10-25T16:44:13.773Z,99416.91
2022-10-25T16:46:40.356Z,99414.69
2022-10-25T16:49:09.140Z,99422.38
2022-10-25T16:51:36.938Z,99412.44
2022-10-25T16:54:03.737Z,99418.06
2022-10-25T16:56:30.356Z,99413.59
2022-10-25T16:58:57.019Z,99409.75
2022-10-25T17:01:29.743Z,99413.44
2022-10-25T17:03:56.327Z,99401.63
2022-10-25T17:06:40.290Z,99411.56
2022-10-25T17:09:08.138Z,99409.00
2022-10-25T17:11:34.745Z,99402.91
2022-10-25T17:14:01.434Z,99405.47
2022-10-25T17:16:28.121Z,99405.34
2022-10-25T17:18:54.627Z,99404.38
2022-10-25T17:21:21.192Z,99396.88
2022-10-25T17:23:47.826Z,99390.16
2022-10-25T17:26:14.670Z,99386.00
2022-10-25T17:28:43.983Z,99389.34
2022-10-25T17:31:13.220Z,99394.94
2022-10-25T17:33:40.696Z,99399.44
2022-10-25T17:36:13.710Z,99405.34
2022-10-25T17:38:41.128Z,99408.69
2022-10-25T17:41:08.210Z,99411.88
2022-10-25T17:43:36.446Z,99405.47
2022-10-25T17:46:05.961Z,99411.53
2022-10-25T17:48:33.213Z,99411.38
2022-10-25T17:51:04.332Z,99416.66
2022-10-25T17:53:31.227Z,99408.03
2022-10-25T17:55:58.188Z,99411.38
2022-10-25T17:58:25.095Z,99400.81
2022-10-25T18:00:54.412Z,99396.16
2022-10-25T18:03:21.326Z,99396.16
2022-10-25T18:05:48.402Z,99401.59
2022-10-25T18:08:15.178Z,99400.00
2022-10-25T18:10:41.722Z,99405.44
2022-10-25T18:13:08.355Z,99401.44
2022-10-25T18:15:38.261Z,99402.56
2022-10-25T18:18:04.944Z,99405.09
2022-10-25T18:20:31.543Z,99407.34
2022-10-25T18:22:58.058Z,99407.34
2022-10-25T18:25:24.644Z,99402.72
2022-10-25T18:27:51.457Z,99405.75
2022-10-25T18:30:18.164Z,99405.75
2022-10-25T18:32:44.698Z,99406.53
2022-10-25T18:35:11.430Z,99405.75
2022-10-25T18:37:38.147Z,99408.94
2022-10-25T18:40:05.510Z,99405.09
2022-10-25T18:42:32.151Z,99398.38
2022-10-25T18:44:58.671Z,99403.03
2022-10-25T18:47:25.211Z,99392.47
2022-10-25T18:49:51.731Z,99398.22
2022-10-25T18:52:18.250Z,99398.22
2022-10-25T18:54:44.815Z,99393.91
2022-10-25T18:57:11.626Z,99399.34
2022-10-25T18:59:38.192Z,99395.53
2022-10-25T19:02:04.813Z,99390.09
2022-10-25T19:04:31.413Z,99391.69
2022-10-25T19:06:57.961Z,99393.75
2022-10-25T19:09:24.651Z,99381.78
2022-10-25T19:11:51.224Z,99385.78
2022-10-25T19:14:17.802Z,99379.53
2022-10-25T19:16:45.015Z,99374.91
2022-10-25T19:19:12.311Z,99371.88
2022-10-25T19:21:39.078Z,99372.97
2022-10-25T19:24:06.328Z,99369.16
2022-10-25T19:26:33.470Z,99362.94
2022-10-25T19:29:01.281Z,99351.72
2022-10-25T19:31:28.984Z,99352.53
2022-10-25T19:34:00.241Z,99353.31
2022-10-25T19:36:27.064Z,99347.09
2022-10-25T19:38:53.864Z,99342.44
2022-10-25T19:41:28.630Z,99332.38
2022-10-25T19:43:56.832Z,99339.72
2022-10-25T19:46:23.907Z,99334.78
2022-10-25T19:48:50.835Z,99325.84
2022-10-25T19:51:20.172Z,99322.31
2022-10-25T19:53:47.540Z,99323.91
2022-10-25T19:56:18.126Z,99322.31
2022-10-25T19:58:45.744Z,99315.28
2022-10-25T20:01:15.892Z,99322.31
2022-10-25T20:03:44.819Z,99316.88
2022-10-25T20:06:18.700Z,99315.28
2022-10-25T20:08:48.513Z,99314.50
2022-10-25T20:11:17.076Z,99316.72
2022-10-25T20:13:44.451Z,99319.75
2022-10-25T20:16:11.731Z,99315.13
2022-10-25T20:18:40.103Z,99311.28
2022-10-25T20:21:13.922Z,99302.81
2022-10-25T20:23:43.332Z,99306.81
2022-10-25T20:26:21.958Z,99298.97
2022-10-25T20:28:49.486Z,99295.59
2022-10-25T20:31:16.490Z,99292.28
2022-10-25T20:33:43.281Z,99287.31
2022-10-25T20:36:12.767Z,99296.25
2022-10-25T20:38:40.113Z,99290.69
2022-10-25T20:41:10.347Z,99287.31
2022-10-25T20:43:38.310Z,99287.78
2022-10-25T20:46:06.303Z,99283.47
2022-10-25T20:48:32.992Z,99289.69
2022-10-25T20:51:04.143Z,99285.38
2022-10-25T20:53:34.218Z,99282.19
2022-10-25T20:56:00.870Z,99287.97
2022-10-25T20:58:27.436Z,99275.50
2022-10-25T21:00:56.263Z,99277.41
2022-10-25T21:03:24.907Z,99275.50
2022-10-25T21:05:56.505Z,99278.22
2022-10-25T21:08:23.534Z,99276.59
2022-10-25T21:10:54.181Z,99278.03
2022-10-25T21:13:22.042Z,99287.44
2022-10-25T21:15:49.573Z,99277.69
2022-10-25T21:18:16.656Z,99275.78
2022-10-25T21:20:44.031Z,99279.81
2022-10-25T21:23:11.064Z,99274.38
2022-10-25T21:25:37.687Z,99271.31
2022-10-25T21:28:05.914Z,99276.91
2022-10-25T21:30:32.551Z,99274.19
2022-10-25T21:32:59.491Z,99273.06
2022-10-25T21:35:26.067Z,99269.25
2022-10-25T21:37:52.679Z,99265.06
2022-10-25T21:40:19.571Z,99267.16
2022-10-25T21:42:46.162Z,99261.84
2022-10-25T21:45:12.679Z,99261.56
2022-10-25T21:47:39.432Z,99261.84
2022-10-25T21:50:09.178Z,99259.66
2022-10-25T21:52:36.827Z,99261.25
2022-10-25T21:55:03.583Z,99264.25
2022-10-25T21:57:30.745Z,99265.09
2022-10-25T21:59:57.283Z,99266.69
2022-10-25T22:02:24.052Z,99255.81
2022-10-25T22:04:50.666Z,99260.13
2022-10-25T22:07:17.166Z,99255.81
2022-10-25T22:09:43.803Z,99249.88
2022-10-25T22:12:10.310Z,99253.22
2022-10-25T22:14:36.907Z,99256.44
2022-10-25T22:17:03.530Z,99255.97
2022-10-25T22:19:30.294Z,99243.50
2022-10-25T22:21:56.860Z,99246.53
2022-10-25T22:24:23.459Z,99248.78
2022-10-25T22:26:51.252Z,99257.91
2022-10-25T22:29:17.843Z,99247.66
2022-10-25T22:31:44.435Z,99247.34
2022-10-25T22:34:11.033Z,99245.75
2022-10-25T22:36:39.851Z,99246.22
2022-10-25T22:39:07.493Z,99252.13
2022-10-25T22:41:34.570Z,99247.81
2022-10-25T22:44:02.506Z,99252.47
2022-10-25T22:46:34.273Z,99262.53
2022-10-25T22:49:08.741Z,99260.91
2022-10-25T22:51:36.240Z,99262.53
2022-10-25T22:54:03.259Z,99260.91
2022-10-25T22:56:31.207Z,99262.53
2022-10-25T22:59:00.050Z,99261.72
2022-10-25T23:01:28.883Z,99263.16
2022-10-25T23:03:57.035Z,99269.72
2022-10-25T23:06:26.441Z,99274.38
2022-10-25T23:08:54.687Z,99273.09
2022-10-25T23:11:26.779Z,99269.59
2022-10-25T23:13:53.184Z,99268.94
2022-10-25T23:16:20.237Z,99283.16
2022-10-25T23:18:46.806Z,99265.41
2022-10-25T23:21:19.131Z,99266.22
2022-10-25T23:23:47.169Z,99259.31
2022-10-25T23:26:19.690Z,99262.53
2022-10-25T23:28:46.275Z,99256.47
2022-10-25T23:31:13.892Z,99253.41
2022-10-25T23:33:41.827Z,99251.97
2022-10-25T23:36:15.695Z,99251.97
2022-10-25T23:38:43.394Z,99258.19
2022-10-25T23:41:09.985Z,99250.03
2022-10-25T23:43:36.547Z,99258.38
2022-10-25T23:46:03.996Z,99251.16
2022-10-25T23:48:31.340Z,99242.69
2022-10-25T23:51:03.676Z,99236.91
2022-10-25T23:53:30.219Z,99236.13
2022-10-25T23:55:56.786Z,99227.16
2022-10-25T23:58:23.763Z,99228.75
